createdAt,value
2016-10-07T00:00:02.777Z,75.42
2016-10-07T00:00:45.371Z,75.13
2016-10-07T00:01:27.948Z,74.71
2016-10-07T00:02:10.518Z,74.85
2016-10-07T00:02:53.047Z,74.81
2016-10-07T00:03:35.650Z,75.23
2016-10-07T00:04:18.230Z,75.1
2016-10-07T00:05:00.776Z,74.71
2016-10-07T00:05:43.327Z,74.81
2016-10-07T00:06:25.895Z,75.48
2016-10-07T00:07:08.441Z,74.81
2016-10-07T00:07:50.961Z,75.2
2016-10-07T00:08:33.525Z,75
2016-10-07T00:09:16.104Z,74.9
2016-10-07T00:09:58.670Z,75.57
2016-10-07T00:10:41.044Z,76.21
2016-10-07T00:11:26.388Z,76.15
2016-10-07T00:12:08.948Z,76.25
2016-10-07T00:12:51.489Z,76.59
2016-10-07T00:13:34.737Z,76.5
2016-10-07T00:14:17.234Z,76.59
2016-10-07T00:14:59.609Z,76.31
2016-10-07T00:15:42.342Z,76.79
2016-10-07T00:16:24.910Z,76.59
2016-10-07T00:17:07.556Z,77.31
2016-10-07T00:17:50.118Z,77.17
2016-10-07T00:18:32.640Z,77.17
2016-10-07T00:19:15.567Z,76.69
2016-10-07T00:19:58.070Z,76.69
2016-10-07T00:20:40.609Z,76.5
2016-10-07T00:21:23.175Z,76.59
2016-10-07T00:22:05.718Z,76.79
2016-10-07T00:22:48.283Z,76.69
2016-10-07T00:23:30.761Z,76.4
2016-10-07T00:24:13.264Z,76.59
2016-10-07T00:24:55.804Z,76.69
2016-10-07T00:25:38.360Z,77.17
2016-10-07T00:26:20.896Z,77.36
2016-10-07T00:27:03.442Z,77.36
2016-10-07T00:27:45.975Z,76.98
2016-10-07T00:28:28.540Z,76.98
2016-10-07T00:29:11.097Z,76.69
2016-10-07T00:29:53.663Z,76.59
2016-10-07T00:30:36.242Z,77.08
2016-10-07T00:31:18.769Z,76.69
2016-10-07T00:32:01.292Z,76.69
2016-10-07T00:32:43.813Z,76.21
2016-10-07T00:33:26.355Z,76.59
2016-10-07T00:34:08.877Z,76.69
2016-10-07T00:34:51.426Z,76.21
2016-10-07T00:35:34.035Z,76.4
2016-10-07T00:36:16.615Z,76.69
2016-10-07T00:36:59.037Z,76.12
2016-10-07T00:37:41.744Z,76.5
2016-10-07T00:38:24.287Z,76.31
2016-10-07T00:39:06.843Z,76.12
2016-10-07T00:39:49.467Z,76.21
2016-10-07T00:40:32.052Z,76.5
2016-10-07T00:41:14.524Z,76.59
2016-10-07T00:41:57.027Z,76.88
2016-10-07T00:42:39.693Z,76.79
2016-10-07T00:43:22.240Z,76.21
2016-10-07T00:44:04.717Z,76.4
2016-10-07T00:44:47.328Z,77.17
2016-10-07T00:45:29.880Z,77.26
2016-10-07T00:46:12.383Z,76.98
2016-10-07T00:46:54.954Z,77.56
2016-10-07T00:47:37.295Z,77.46
2016-10-07T00:48:20.033Z,76.98
2016-10-07T00:49:02.602Z,76.88
2016-10-07T00:49:45.123Z,77.08
2016-10-07T00:50:27.695Z,76.69
2016-10-07T00:51:10.234Z,76.5
2016-10-07T00:51:52.748Z,76.31
2016-10-07T00:52:35.315Z,76.21
2016-10-07T00:53:17.857Z,76.59
2016-10-07T00:54:00.454Z,76.31
2016-10-07T00:54:42.999Z,76.31
2016-10-07T00:55:25.540Z,76.5
2016-10-07T00:56:08.068Z,75.63
2016-10-07T00:56:50.642Z,75.63
2016-10-07T00:57:33.225Z,75.63
2016-10-07T00:58:15.782Z,76.21
2016-10-07T00:58:58.296Z,76.21
2016-10-07T00:59:40.857Z,76.69
2016-10-07T01:00:23.378Z,76.21
2016-10-07T01:01:05.961Z,76.12
2016-10-07T01:01:48.513Z,76.12
2016-10-07T01:02:31.056Z,76.02
2016-10-07T01:03:13.614Z,75.92
2016-10-07T01:03:56.183Z,76.02
2016-10-07T01:04:38.735Z,76.59
2016-10-07T01:05:21.326Z,76.12
2016-10-07T01:06:03.861Z,76.12
2016-10-07T01:06:46.503Z,76.79
2016-10-07T01:07:28.935Z,76.59
2016-10-07T01:08:11.574Z,76.56
2016-10-07T01:08:54.115Z,76.46
2016-10-07T01:09:36.527Z,76.46
2016-10-07T01:10:19.023Z,76.46
2016-10-07T01:11:01.748Z,76.02
2016-10-07T01:11:44.300Z,76.4
2016-10-07T01:12:26.901Z,76.37
2016-10-07T01:13:09.427Z,76.5
2016-10-07T01:13:51.997Z,76.65
2016-10-07T01:14:34.564Z,76.84
2016-10-07T01:15:17.095Z,77.23
2016-10-07T01:15:59.658Z,76.84
2016-10-07T01:16:42.192Z,76.65
2016-10-07T01:17:24.792Z,76.69
2016-10-07T01:18:07.310Z,76.56
2016-10-07T01:18:49.865Z,76.21
2016-10-07T01:19:32.399Z,75.7
2016-10-07T01:20:14.925Z,76.27
2016-10-07T01:20:57.522Z,76.84
2016-10-07T01:21:40.114Z,76.37
2016-10-07T01:22:22.637Z,76.17
2016-10-07T01:23:05.082Z,76.65
2016-10-07T01:23:47.744Z,77.23
2016-10-07T01:24:30.292Z,76.56
2016-10-07T01:25:12.871Z,76.56
2016-10-07T01:25:55.387Z,75.89
2016-10-07T01:26:37.916Z,76.27
2016-10-07T01:27:20.453Z,76.17
2016-10-07T01:28:03.013Z,76.07
2016-10-07T01:28:45.569Z,76.27
2016-10-07T01:29:28.125Z,76.37
2016-10-07T01:30:10.651Z,76.65
2016-10-07T01:30:53.218Z,76.27
2016-10-07T01:31:35.760Z,76.46
2016-10-07T01:32:18.257Z,76.59
2016-10-07T01:33:00.863Z,76.07
2016-10-07T01:33:43.346Z,76.37
2016-10-07T01:34:25.913Z,76.27
2016-10-07T01:35:08.467Z,76.07
2016-10-07T01:35:51.034Z,76.07
2016-10-07T01:36:33.578Z,75.79
2016-10-07T01:37:16.075Z,76.07
2016-10-07T01:37:58.630Z,75.79
2016-10-07T01:38:41.214Z,75.6
2016-10-07T01:39:23.716Z,75.21
2016-10-07T01:40:06.253Z,75.21
2016-10-07T01:40:48.797Z,75.06
2016-10-07T01:41:31.350Z,75.02
2016-10-07T01:42:13.930Z,75.5
2016-10-07T01:42:56.529Z,75.63
2016-10-07T01:43:39.133Z,76.07
2016-10-07T01:44:21.774Z,75.4
2016-10-07T01:45:04.312Z,75.89
2016-10-07T01:45:46.904Z,75.79
2016-10-07T01:46:29.417Z,75.98
2016-10-07T01:47:12.018Z,75.45
2016-10-07T01:47:54.502Z,75.73
2016-10-07T01:48:37.130Z,76.02
2016-10-07T01:49:19.652Z,76.75
2016-10-07T01:50:02.198Z,77.04
2016-10-07T01:50:44.756Z,76.94
2016-10-07T01:51:27.313Z,77.51
2016-10-07T01:52:09.801Z,76.75
2016-10-07T01:52:52.406Z,76.84
2016-10-07T01:53:36.912Z,76.84
2016-10-07T01:54:19.326Z,76.65
2016-10-07T01:55:02.040Z,76.75
2016-10-07T01:55:44.521Z,76.84
2016-10-07T01:56:27.096Z,76.65
2016-10-07T01:57:09.694Z,76.37
2016-10-07T01:57:52.275Z,75.98
2016-10-07T01:58:34.863Z,76.27
2016-10-07T01:59:17.391Z,75.7
2016-10-07T01:59:59.915Z,75.7
2016-10-07T02:00:42.461Z,75.98
2016-10-07T02:01:25.003Z,76.17
2016-10-07T02:02:07.636Z,76.27
2016-10-07T02:02:50.192Z,76.37
2016-10-07T02:03:32.731Z,76.46
2016-10-07T02:04:15.374Z,77.04
2016-10-07T02:04:57.855Z,76.56
2016-10-07T02:05:40.473Z,76.81
2016-10-07T02:06:23.055Z,76.52
2016-10-07T02:07:05.648Z,76.75
2016-10-07T02:07:48.187Z,76.65
2016-10-07T02:08:30.760Z,76.75
2016-10-07T02:09:16.015Z,76.07
2016-10-07T02:09:58.541Z,76.07
2016-10-07T02:10:41.124Z,75.6
2016-10-07T02:11:23.685Z,75.7
2016-10-07T02:12:09.017Z,75.98
2016-10-07T02:12:51.555Z,76.17
2016-10-07T02:13:34.105Z,76.17
2016-10-07T02:14:16.648Z,76.27
2016-10-07T02:14:59.230Z,76.37
2016-10-07T02:15:41.771Z,76.37
2016-10-07T02:16:24.315Z,76.37
2016-10-07T02:17:06.864Z,76.27
2016-10-07T02:17:49.281Z,76.07
2016-10-07T02:18:31.980Z,76.27
2016-10-07T02:19:14.489Z,76.27
2016-10-07T02:19:57.143Z,76.17
2016-10-07T02:20:39.733Z,75.7
2016-10-07T02:21:22.333Z,75.79
2016-10-07T02:22:06.463Z,76.27
2016-10-07T02:22:49.035Z,75.98
2016-10-07T02:23:31.668Z,76.07
2016-10-07T02:24:14.168Z,75.37
2016-10-07T02:24:56.711Z,76.23
2016-10-07T02:25:39.222Z,76.62
2016-10-07T02:26:21.755Z,76.71
2016-10-07T02:27:04.352Z,76.71
2016-10-07T02:27:46.887Z,76.81
2016-10-07T02:28:29.448Z,76.71
2016-10-07T02:29:11.967Z,76.52
2016-10-07T02:29:54.519Z,76.81
2016-10-07T02:30:37.085Z,76.42
2016-10-07T02:31:19.668Z,76.23
2016-10-07T02:32:02.287Z,76.04
2016-10-07T02:32:44.752Z,76.9
2016-10-07T02:33:27.338Z,76.62
2016-10-07T02:34:09.904Z,76.71
2016-10-07T02:34:52.441Z,76.71
2016-10-07T02:35:35.016Z,76.9
2016-10-07T02:36:17.544Z,76.81
2016-10-07T02:37:00.057Z,76.9
2016-10-07T02:37:42.646Z,77
2016-10-07T02:38:25.207Z,76.71
2016-10-07T02:39:07.846Z,77
2016-10-07T02:39:50.410Z,76.62
2016-10-07T02:40:32.962Z,76.71
2016-10-07T02:41:15.496Z,76.71
2016-10-07T02:41:57.836Z,76.52
2016-10-07T02:42:40.562Z,75.95
2016-10-07T02:43:23.163Z,75.95
2016-10-07T02:44:05.716Z,76.14
2016-10-07T02:44:48.136Z,76.04
2016-10-07T02:45:30.733Z,75.85
2016-10-07T02:46:13.310Z,75.37
2016-10-07T02:46:55.852Z,76.04
2016-10-07T02:47:38.321Z,76.04
2016-10-07T02:48:20.946Z,75.65
2016-10-07T02:49:03.458Z,75.85
2016-10-07T02:49:45.993Z,75.37
2016-10-07T02:50:28.526Z,75.08
2016-10-07T02:51:11.126Z,74.79
2016-10-07T02:51:53.671Z,74.69
2016-10-07T02:52:36.205Z,74.98
2016-10-07T02:53:18.773Z,74.98
2016-10-07T02:54:01.106Z,74.79
2016-10-07T02:54:43.851Z,74.69
2016-10-07T02:55:26.409Z,74.51
2016-10-07T02:56:08.999Z,74.69
2016-10-07T02:56:51.617Z,74.31
2016-10-07T02:57:34.162Z,74.6
2016-10-07T02:58:16.717Z,74.69
2016-10-07T02:58:59.287Z,74.51
2016-10-07T02:59:41.816Z,74.6
2016-10-07T03:00:24.341Z,74.41
2016-10-07T03:01:06.947Z,74.79
2016-10-07T03:01:49.378Z,73.97
2016-10-07T03:02:32.101Z,74.12
2016-10-07T03:03:14.478Z,73.83
2016-10-07T03:03:57.165Z,73.93
2016-10-07T03:04:39.718Z,74.12
2016-10-07T03:06:04.763Z,73.3
2016-10-07T03:06:47.379Z,73.65
2016-10-07T03:07:29.947Z,73.3
2016-10-07T03:08:12.514Z,73.65
2016-10-07T03:08:55.061Z,73.93
2016-10-07T03:09:37.625Z,74.12
2016-10-07T03:10:20.039Z,73.83
2016-10-07T03:11:02.715Z,73.35
2016-10-07T03:11:45.268Z,73.74
2016-10-07T03:12:27.868Z,74.02
2016-10-07T03:13:10.485Z,74.31
2016-10-07T03:13:55.381Z,74.89
2016-10-07T03:14:38.149Z,74.51
2016-10-07T03:15:23.955Z,73.83
2016-10-07T03:16:06.818Z,73.83
2016-10-07T03:16:49.344Z,74.12
2016-10-07T03:17:31.894Z,74.41
2016-10-07T03:18:14.469Z,74.31
2016-10-07T03:18:57.030Z,74.02
2016-10-07T03:19:39.622Z,73.35
2016-10-07T03:20:22.202Z,73.7
2016-10-07T03:21:04.760Z,73.99
2016-10-07T03:21:47.310Z,73.99
2016-10-07T03:22:29.854Z,73.8
2016-10-07T03:23:12.427Z,73.8
2016-10-07T03:23:55.008Z,73.8
2016-10-07T03:24:37.537Z,73.41
2016-10-07T03:25:20.134Z,73.8
2016-10-07T03:26:02.746Z,73.7
2016-10-07T03:26:45.286Z,73.7
2016-10-07T03:27:27.808Z,73.41
2016-10-07T03:28:10.333Z,73.7
2016-10-07T03:28:52.724Z,73.7
2016-10-07T03:29:35.477Z,73.99
2016-10-07T03:30:18.018Z,73.61
2016-10-07T03:31:00.626Z,73.32
2016-10-07T03:31:43.111Z,73.51
2016-10-07T03:32:25.776Z,73.22
2016-10-07T03:33:08.369Z,73.55
2016-10-07T03:33:50.911Z,73.13
2016-10-07T03:34:33.434Z,73.16
2016-10-07T03:35:16.058Z,72.84
2016-10-07T03:35:58.587Z,73.03
2016-10-07T03:36:41.191Z,73.03
2016-10-07T03:37:23.772Z,72.27
2016-10-07T03:38:06.298Z,72.17
2016-10-07T03:38:48.898Z,72.88
2016-10-07T03:39:31.516Z,72.36
2016-10-07T03:40:14.066Z,73.51
2016-10-07T03:40:56.610Z,73.32
2016-10-07T03:41:39.188Z,74.18
2016-10-07T03:42:21.844Z,73.8
2016-10-07T03:43:04.425Z,73.8
2016-10-07T03:43:47.021Z,73.51
2016-10-07T03:44:29.570Z,73.41
2016-10-07T03:45:12.242Z,73.41
2016-10-07T03:45:54.785Z,73.35
2016-10-07T03:46:37.357Z,72.88
2016-10-07T03:47:20.135Z,73.22
2016-10-07T03:48:02.682Z,73.22
2016-10-07T03:48:45.288Z,73.22
2016-10-07T03:49:27.864Z,73.32
2016-10-07T03:50:10.436Z,73.35
2016-10-07T03:50:53.027Z,73.16
2016-10-07T03:51:35.532Z,73.16
2016-10-07T03:52:18.100Z,72.68
2016-10-07T03:53:00.677Z,72.88
2016-10-07T03:53:43.241Z,72.68
2016-10-07T03:54:25.803Z,72.88
2016-10-07T03:55:08.363Z,73.07
2016-10-07T03:55:50.929Z,73.26
2016-10-07T03:56:33.516Z,73.65
2016-10-07T03:57:16.090Z,73.7
2016-10-07T03:57:58.650Z,73.51
2016-10-07T03:58:41.389Z,73.7
2016-10-07T03:59:23.941Z,73.8
2016-10-07T04:00:06.457Z,73.55
2016-10-07T04:00:49.049Z,72.84
2016-10-07T04:01:31.538Z,73.07
2016-10-07T04:02:14.178Z,72.88
2016-10-07T04:02:56.708Z,73.32
2016-10-07T04:03:39.283Z,73.26
2016-10-07T04:04:21.794Z,72.59
2016-10-07T04:05:04.348Z,72.74
2016-10-07T04:05:46.868Z,72.64
2016-10-07T04:06:29.449Z,72.84
2016-10-07T04:07:11.987Z,72.55
2016-10-07T04:07:54.541Z,73.32
2016-10-07T04:08:37.079Z,72.94
2016-10-07T04:09:19.645Z,72.39
2016-10-07T04:10:02.200Z,72.39
2016-10-07T04:10:44.805Z,72.3
2016-10-07T04:11:27.396Z,71.72
2016-10-07T04:12:09.929Z,71.72
2016-10-07T04:12:52.476Z,71.82
2016-10-07T04:13:35.027Z,72.49
2016-10-07T04:14:17.544Z,72.49
2016-10-07T04:15:00.123Z,72.68
2016-10-07T04:15:42.727Z,72.2
2016-10-07T04:16:25.244Z,72.59
2016-10-07T04:17:07.786Z,72.59
2016-10-07T04:17:50.365Z,72.11
2016-10-07T04:18:32.912Z,71.53
2016-10-07T04:19:15.519Z,71.82
2016-10-07T04:19:57.982Z,72.01
2016-10-07T04:20:40.591Z,71.78
2016-10-07T04:21:23.186Z,72.01
2016-10-07T04:22:05.760Z,71.82
2016-10-07T04:22:48.312Z,71.63
2016-10-07T04:23:30.874Z,72.01
2016-10-07T04:24:13.426Z,72.01
2016-10-07T04:24:56.671Z,72.39
2016-10-07T04:25:39.218Z,72.88
2016-10-07T04:26:21.767Z,72.2
2016-10-07T04:27:04.355Z,72.3
2016-10-07T04:27:46.773Z,72.49
2016-10-07T04:28:29.374Z,72.49
2016-10-07T04:29:12.045Z,72.2
2016-10-07T04:29:54.682Z,72.68
2016-10-07T04:30:37.252Z,72.3
2016-10-07T04:31:19.866Z,72.36
2016-10-07T04:32:02.384Z,72.17
2016-10-07T04:32:44.951Z,72.45
2016-10-07T04:33:28.079Z,72.84
2016-10-07T04:34:10.667Z,72.74
2016-10-07T04:34:53.281Z,72.84
2016-10-07T04:35:35.888Z,72.84
2016-10-07T04:36:18.445Z,72.64
2016-10-07T04:37:01.003Z,72.84
2016-10-07T04:37:43.591Z,72.84
2016-10-07T04:38:26.163Z,72.45
2016-10-07T04:39:08.687Z,73.03
2016-10-07T04:39:51.219Z,72.45
2016-10-07T04:40:33.815Z,72.84
2016-10-07T04:41:16.377Z,72.74
2016-10-07T04:41:58.934Z,72.78
2016-10-07T04:42:41.481Z,72.84
2016-10-07T04:43:24.039Z,72.49
2016-10-07T04:44:06.603Z,72.68
2016-10-07T04:44:49.190Z,72.78
2016-10-07T04:45:31.644Z,72.3
2016-10-07T04:46:14.343Z,72.68
2016-10-07T04:46:56.916Z,72.59
2016-10-07T04:47:39.481Z,72.3
2016-10-07T04:48:22.050Z,72.2
2016-10-07T04:49:04.592Z,72.17
2016-10-07T04:49:47.159Z,72.74
2016-10-07T04:50:29.716Z,73.32
2016-10-07T04:51:12.271Z,73.32
2016-10-07T04:51:54.825Z,73.41
2016-10-07T04:52:37.382Z,72.84
2016-10-07T04:53:19.954Z,73.22
2016-10-07T04:54:02.578Z,73.03
2016-10-07T04:54:45.138Z,73.22
2016-10-07T04:55:27.609Z,73.13
2016-10-07T04:56:10.252Z,73.32
2016-10-07T04:56:52.843Z,73.22
2016-10-07T04:57:35.479Z,73.32
2016-10-07T04:58:17.994Z,73.51
2016-10-07T04:59:00.558Z,73.22
2016-10-07T04:59:43.154Z,72.84
2016-10-07T05:00:25.691Z,73.61
2016-10-07T05:01:08.302Z,73.99
2016-10-07T05:01:50.881Z,73.8
2016-10-07T05:02:33.418Z,74.27
2016-10-07T05:03:16.002Z,73.99
2016-10-07T05:03:58.596Z,73.99
2016-10-07T05:04:41.180Z,74.18
2016-10-07T05:05:23.695Z,73.7
2016-10-07T05:06:06.278Z,73.61
2016-10-07T05:06:48.840Z,73.8
2016-10-07T05:07:31.395Z,73.99
2016-10-07T05:08:13.953Z,74.27
2016-10-07T05:08:56.543Z,74.08
2016-10-07T05:09:39.075Z,73.99
2016-10-07T05:10:21.696Z,73.99
2016-10-07T05:11:04.223Z,73.9
2016-10-07T05:11:46.780Z,74.18
2016-10-07T05:12:29.377Z,74.08
2016-10-07T05:13:11.859Z,74.37
2016-10-07T05:13:54.467Z,74.18
2016-10-07T05:14:37.076Z,74.02
2016-10-07T05:15:19.651Z,73.45
2016-10-07T05:16:02.209Z,73.55
2016-10-07T05:16:44.839Z,73.74
2016-10-07T05:17:27.415Z,73.74
2016-10-07T05:18:09.895Z,73.93
2016-10-07T05:18:52.468Z,74.02
2016-10-07T05:19:35.020Z,74.02
2016-10-07T05:20:17.557Z,73.65
2016-10-07T05:21:00.175Z,73.26
2016-10-07T05:21:42.760Z,73.45
2016-10-07T05:22:25.947Z,73.07
2016-10-07T05:23:08.661Z,72.88
2016-10-07T05:23:51.261Z,72.88
2016-10-07T05:24:33.887Z,72.97
2016-10-07T05:25:16.464Z,73.45
2016-10-07T05:25:59.045Z,73.16
2016-10-07T05:26:41.610Z,72.59
2016-10-07T05:27:24.242Z,72.78
2016-10-07T05:28:06.752Z,72.88
2016-10-07T05:28:49.368Z,72.88
2016-10-07T05:29:31.949Z,72.88
2016-10-07T05:30:14.520Z,72.49
2016-10-07T05:30:57.116Z,72.49
2016-10-07T05:31:39.671Z,72.88
2016-10-07T05:32:22.238Z,72.68
2016-10-07T05:33:04.810Z,72.68
2016-10-07T05:33:47.383Z,72.49
2016-10-07T05:34:29.971Z,72.88
2016-10-07T05:35:12.617Z,72.49
2016-10-07T05:35:55.186Z,72.59
2016-10-07T05:36:37.801Z,72.2
2016-10-07T05:37:20.384Z,72.2
2016-10-07T05:38:02.954Z,72.39
2016-10-07T05:38:45.516Z,72.2
2016-10-07T05:39:28.115Z,72.49
2016-10-07T05:40:10.627Z,72.49
2016-10-07T05:40:53.171Z,72.49
2016-10-07T05:41:35.719Z,72.59
2016-10-07T05:42:18.307Z,72.39
2016-10-07T05:43:00.924Z,72.11
2016-10-07T05:43:43.532Z,72.11
2016-10-07T05:44:26.103Z,72.88
2016-10-07T05:45:08.686Z,73.26
2016-10-07T05:45:51.196Z,72.88
2016-10-07T05:46:33.811Z,72.88
2016-10-07T05:47:16.400Z,73.07
2016-10-07T05:47:58.974Z,73.35
2016-10-07T05:48:41.530Z,73.26
2016-10-07T05:49:24.124Z,73.26
2016-10-07T05:50:06.704Z,73.26
2016-10-07T05:50:49.301Z,73.45
2016-10-07T05:51:31.865Z,73.26
2016-10-07T05:52:14.459Z,73.22
2016-10-07T05:52:57.014Z,73.26
2016-10-07T05:53:39.556Z,73.7
2016-10-07T05:54:22.136Z,74.27
2016-10-07T05:55:04.685Z,73.9
2016-10-07T05:55:47.228Z,73.99
2016-10-07T05:56:29.872Z,73.8
2016-10-07T05:57:12.407Z,73.99
2016-10-07T05:57:55.025Z,74.18
2016-10-07T05:58:37.615Z,73.8
2016-10-07T05:59:20.161Z,74.12
2016-10-07T06:00:02.735Z,73.41
2016-10-07T06:00:45.254Z,73.8
2016-10-07T06:01:27.855Z,73.51
2016-10-07T06:02:10.365Z,73.61
2016-10-07T06:02:52.933Z,73.93
2016-10-07T06:03:35.501Z,74.02
2016-10-07T06:04:18.076Z,73.45
2016-10-07T06:05:00.650Z,73.26
2016-10-07T06:05:43.180Z,73.65
2016-10-07T06:06:25.747Z,73.26
2016-10-07T06:07:08.287Z,73.55
2016-10-07T06:07:50.823Z,73.7
2016-10-07T06:08:33.395Z,73.99
2016-10-07T06:09:15.947Z,74.02
2016-10-07T06:09:58.478Z,73.74
2016-10-07T06:10:41.029Z,73.65
2016-10-07T06:11:23.609Z,73.65
2016-10-07T06:12:06.194Z,73.32
2016-10-07T06:12:48.751Z,73.41
2016-10-07T06:13:31.108Z,73.7
2016-10-07T06:14:13.900Z,73.9
2016-10-07T06:14:56.455Z,73.99
2016-10-07T06:15:38.997Z,73.45
2016-10-07T06:16:21.522Z,73.22
2016-10-07T06:17:04.120Z,73.7
2016-10-07T06:17:46.707Z,73.7
2016-10-07T06:18:29.284Z,74.08
2016-10-07T06:19:11.846Z,73.8
2016-10-07T06:19:54.466Z,73.9
2016-10-07T06:20:37.011Z,74.08
2016-10-07T06:21:19.597Z,74.27
2016-10-07T06:22:02.133Z,73.99
2016-10-07T06:22:44.708Z,74.22
2016-10-07T06:23:27.218Z,73.9
2016-10-07T06:24:09.828Z,74.47
2016-10-07T06:24:52.412Z,74.18
2016-10-07T06:25:35.026Z,74.18
2016-10-07T06:26:17.617Z,74.76
2016-10-07T06:27:00.189Z,74.27
2016-10-07T06:27:42.787Z,74.66
2016-10-07T06:28:25.421Z,74.66
2016-10-07T06:29:07.971Z,74.95
2016-10-07T06:29:50.561Z,74.85
2016-10-07T06:30:33.064Z,74.76
2016-10-07T06:31:15.691Z,75.14
2016-10-07T06:31:58.250Z,75.81
2016-10-07T06:32:40.848Z,76.48
2016-10-07T06:33:23.401Z,77.34
2016-10-07T06:34:05.967Z,77.78
2016-10-07T06:34:48.508Z,78.36
2016-10-07T06:35:30.947Z,79.03
2016-10-07T06:36:13.576Z,79.22
2016-10-07T06:36:56.136Z,79.22
2016-10-07T06:37:38.759Z,80.47
2016-10-07T06:38:21.313Z,79.89
2016-10-07T06:39:03.892Z,79.7
2016-10-07T06:39:46.470Z,79.51
2016-10-07T06:40:29.074Z,80.08
2016-10-07T06:41:11.554Z,79.41
2016-10-07T06:41:54.100Z,79.41
2016-10-07T06:42:36.694Z,79.8
2016-10-07T06:43:19.268Z,79.89
2016-10-07T06:44:01.797Z,80.18
2016-10-07T06:44:44.339Z,79.89
2016-10-07T06:45:26.905Z,79.7
2016-10-07T06:46:09.444Z,80.56
2016-10-07T06:46:52.036Z,80.27
2016-10-07T06:47:34.572Z,79.89
2016-10-07T06:48:17.082Z,79.99
2016-10-07T06:48:59.617Z,79.32
2016-10-07T06:49:42.217Z,79.32
2016-10-07T06:50:24.778Z,79.32
2016-10-07T06:51:07.317Z,80.08
2016-10-07T06:51:49.844Z,79.99
2016-10-07T06:52:32.385Z,80.27
2016-10-07T06:53:15.020Z,79.99
2016-10-07T06:53:57.566Z,80.18
2016-10-07T06:54:40.103Z,80.37
2016-10-07T06:55:22.640Z,80.47
2016-10-07T06:56:05.198Z,80.47
2016-10-07T06:56:47.759Z,80.27
2016-10-07T06:57:30.393Z,80.18
2016-10-07T06:58:12.934Z,80.56
2016-10-07T06:58:55.459Z,80.37
2016-10-07T06:59:38.031Z,80.47
2016-10-07T07:00:20.590Z,80.18
2016-10-07T07:01:03.070Z,80.08
2016-10-07T07:01:45.693Z,80.18
2016-10-07T07:02:28.228Z,79.89
2016-10-07T07:03:10.873Z,79.8
2016-10-07T07:03:53.468Z,79.8
2016-10-07T07:04:36.026Z,79.89
2016-10-07T07:05:18.633Z,80.08
2016-10-07T07:06:01.159Z,80.37
2016-10-07T07:06:43.764Z,80.08
2016-10-07T07:07:26.291Z,79.99
2016-10-07T07:08:08.882Z,79.99
2016-10-07T07:08:51.501Z,80.18
2016-10-07T07:09:34.060Z,80.08
2016-10-07T07:10:16.604Z,79.32
2016-10-07T07:10:59.198Z,79.32
2016-10-07T07:11:41.808Z,80.27
2016-10-07T07:12:24.319Z,79.99
2016-10-07T07:13:06.909Z,80.18
2016-10-07T07:13:49.467Z,79.8
2016-10-07T07:14:32.002Z,79.41
2016-10-07T07:15:14.586Z,79.22
2016-10-07T07:15:57.078Z,79.22
2016-10-07T07:16:39.524Z,79.13
2016-10-07T07:17:22.164Z,79.22
2016-10-07T07:18:04.732Z,78.84
2016-10-07T07:18:47.260Z,79.03
2016-10-07T07:19:29.827Z,79.03
2016-10-07T07:20:12.398Z,78.84
2016-10-07T07:20:54.986Z,79.13
2016-10-07T07:21:37.525Z,79.13
2016-10-07T07:22:20.111Z,78.84
2016-10-07T07:23:02.652Z,78.55
2016-10-07T07:23:45.163Z,78.69
2016-10-07T07:24:27.834Z,78.3
2016-10-07T07:25:10.408Z,77.82
2016-10-07T07:25:53.032Z,78.02
2016-10-07T07:26:35.605Z,77.92
2016-10-07T07:27:18.173Z,78.02
2016-10-07T07:28:00.742Z,78.11
2016-10-07T07:28:43.189Z,78.27
2016-10-07T07:29:25.893Z,78.64
2016-10-07T07:30:08.445Z,78.55
2016-10-07T07:30:51.000Z,78.49
2016-10-07T07:31:33.479Z,78.55
2016-10-07T07:32:16.045Z,78.27
2016-10-07T07:32:58.613Z,79.32
2016-10-07T07:33:41.247Z,79.51
2016-10-07T07:34:23.779Z,79.41
2016-10-07T07:35:06.273Z,79.32
2016-10-07T07:35:48.936Z,79.89
2016-10-07T07:36:31.545Z,79.6
2016-10-07T07:37:14.129Z,80.27
2016-10-07T07:37:56.702Z,80.47
2016-10-07T07:38:39.332Z,80.52
2016-10-07T07:39:21.885Z,80.76
2016-10-07T07:40:04.484Z,81.52
2016-10-07T07:40:47.070Z,81
2016-10-07T07:41:29.659Z,81.57
2016-10-07T07:42:12.289Z,81.71
2016-10-07T07:42:54.801Z,82
2016-10-07T07:43:37.390Z,81.2
2016-10-07T07:44:19.946Z,81.67
2016-10-07T07:45:02.516Z,81.57
2016-10-07T07:45:45.134Z,81.57
2016-10-07T07:46:27.693Z,81.67
2016-10-07T07:47:10.231Z,81.57
2016-10-07T07:47:52.786Z,81.77
2016-10-07T07:48:35.406Z,81.38
2016-10-07T07:49:17.950Z,81.67
2016-10-07T07:50:00.524Z,81.23
2016-10-07T07:50:43.086Z,81.43
2016-10-07T07:51:25.706Z,81.62
2016-10-07T07:52:08.314Z,80.85
2016-10-07T07:52:50.900Z,81.04
2016-10-07T07:53:33.457Z,80.81
2016-10-07T07:54:16.073Z,80.94
2016-10-07T07:54:58.626Z,80.9
2016-10-07T07:55:41.195Z,80.43
2016-10-07T07:56:23.814Z,80.66
2016-10-07T07:57:06.394Z,80.14
2016-10-07T07:57:48.924Z,80.18
2016-10-07T07:58:31.559Z,80.18
2016-10-07T07:59:14.099Z,80.47
2016-10-07T07:59:56.642Z,80.56
2016-10-07T08:00:39.190Z,80.08
2016-10-07T08:01:21.727Z,79.89
2016-10-07T08:02:04.282Z,80.43
2016-10-07T08:02:46.848Z,81
2016-10-07T08:03:29.381Z,80.85
2016-10-07T08:04:11.911Z,81.38
2016-10-07T08:04:54.485Z,81.23
2016-10-07T08:05:37.018Z,81.81
2016-10-07T08:06:19.584Z,81.86
2016-10-07T08:07:02.140Z,81.23
2016-10-07T08:07:44.667Z,81.48
2016-10-07T08:08:27.227Z,81.67
2016-10-07T08:09:09.882Z,80.85
2016-10-07T08:09:52.479Z,80.62
2016-10-07T08:10:35.049Z,81.2
2016-10-07T08:11:17.637Z,81.77
2016-10-07T08:12:00.198Z,81.67
2016-10-07T08:12:42.832Z,81.96
2016-10-07T08:13:25.413Z,82.15
2016-10-07T08:14:07.978Z,81.77
2016-10-07T08:14:50.570Z,82.24
2016-10-07T08:15:33.129Z,81.57
2016-10-07T08:16:15.705Z,81.48
2016-10-07T08:16:58.277Z,80.85
2016-10-07T08:17:40.834Z,80.71
2016-10-07T08:18:23.422Z,80.85
2016-10-07T08:19:05.962Z,81.04
2016-10-07T08:19:48.548Z,81.62
2016-10-07T08:20:31.098Z,80.71
2016-10-07T08:21:13.661Z,81.04
2016-10-07T08:21:56.210Z,80.76
2016-10-07T08:22:38.784Z,80.27
2016-10-07T08:23:21.345Z,80.56
2016-10-07T08:24:03.892Z,80.56
2016-10-07T08:24:46.464Z,80.33
2016-10-07T08:25:29.006Z,80.18
2016-10-07T08:26:11.578Z,80.37
2016-10-07T08:26:54.139Z,80.37
2016-10-07T08:27:36.728Z,80.56
2016-10-07T08:28:19.390Z,80.08
2016-10-07T08:29:01.939Z,80.47
2016-10-07T08:29:44.548Z,80.27
2016-10-07T08:30:27.124Z,80.27
2016-10-07T08:31:09.733Z,79.95
2016-10-07T08:31:52.267Z,79.57
2016-10-07T08:32:34.802Z,79.95
2016-10-07T08:33:17.379Z,79.75
2016-10-07T08:33:59.918Z,79.41
2016-10-07T08:34:42.472Z,79.66
2016-10-07T08:35:25.038Z,80.08
2016-10-07T08:36:07.622Z,80.52
2016-10-07T08:36:50.237Z,80.62
2016-10-07T08:37:32.807Z,79.75
2016-10-07T08:38:15.395Z,79.37
2016-10-07T08:38:57.972Z,79.47
2016-10-07T08:39:40.558Z,79.18
2016-10-07T08:40:23.110Z,79.28
2016-10-07T08:41:05.651Z,79.28
2016-10-07T08:41:48.251Z,78.8
2016-10-07T08:42:30.853Z,78.89
2016-10-07T08:43:13.448Z,78.89
2016-10-07T08:43:56.078Z,78.8
2016-10-07T08:44:38.640Z,79.03
2016-10-07T08:45:21.210Z,77.78
2016-10-07T08:46:03.759Z,78.07
2016-10-07T08:46:46.316Z,78.03
2016-10-07T08:47:28.888Z,77.88
2016-10-07T08:48:11.414Z,77.88
2016-10-07T08:48:53.982Z,77.78
2016-10-07T08:49:36.561Z,77.78
2016-10-07T08:50:19.112Z,78.03
2016-10-07T08:51:01.670Z,76.98
2016-10-07T08:52:26.991Z,77.94
2016-10-07T08:53:09.586Z,77.21
2016-10-07T08:53:52.126Z,77.02
2016-10-07T08:54:34.702Z,77.75
2016-10-07T08:55:17.247Z,78.13
2016-10-07T08:55:59.781Z,77.75
2016-10-07T08:56:42.380Z,78.03
2016-10-07T08:57:24.938Z,77.84
2016-10-07T08:58:07.460Z,78.22
2016-10-07T08:58:49.984Z,78.13
2016-10-07T08:59:32.457Z,78.42
2016-10-07T09:00:15.020Z,78.22
2016-10-07T09:00:57.675Z,78.22
2016-10-07T09:01:40.229Z,78.03
2016-10-07T09:02:22.764Z,77.75
2016-10-07T09:03:05.312Z,78.03
2016-10-07T09:03:47.722Z,78.22
2016-10-07T09:04:30.319Z,77.94
2016-10-07T09:05:12.911Z,77.84
2016-10-07T09:05:55.451Z,77.84
2016-10-07T09:06:37.913Z,77.46
2016-10-07T09:07:20.588Z,77.88
2016-10-07T09:08:03.136Z,77.65
2016-10-07T09:08:45.713Z,77.36
2016-10-07T09:09:28.300Z,77.08
2016-10-07T09:10:10.854Z,77.26
2016-10-07T09:10:53.534Z,77.08
2016-10-07T09:11:36.057Z,77.08
2016-10-07T09:12:18.621Z,77.4